sensor_id;sensor_type;location;lat;lon;timestamp;P1;durP1;ratioP1;P2;durP2;ratioP2
33824;SDS011;20127;48.962;8.342;2022-07-29T00:00:21;7.53;;;2.45;;
33824;SDS011;20127;48.962;8.342;2022-07-29T00:03:23;2.65;;;2.13;;
33824;SDS011;20127;48.962;8.342;2022-07-29T00:06:24;2.60;;;1.60;;
33824;SDS011;20127;48.962;8.342;2022-07-29T00:09:26;3.97;;;2.03;;
33824;SDS011;20127;48.962;8.342;2022-07-29T00:12:29;3.30;;;2.00;;
33824;SDS011;20127;48.962;8.342;2022-07-29T00:15:31;3.30;;;2.08;;
33824;SDS011;20127;48.962;8.342;2022-07-29T00:18:33;6.00;;;2.05;;
33824;SDS011;20127;48.962;8.342;2022-07-29T00:21:35;3.78;;;2.05;;
33824;SDS011;20127;48.962;8.342;2022-07-29T00:24:36;6.90;;;2.20;;
33824;SDS011;20127;48.962;8.342;2022-07-29T00:27:39;4.93;;;2.05;;
33824;SDS011;20127;48.962;8.342;2022-07-29T00:30:41;3.33;;;2.25;;
33824;SDS011;20127;48.962;8.342;2022-07-29T00:33:43;6.90;;;2.40;;
33824;SDS011;20127;48.962;8.342;2022-07-29T00:36:45;5.40;;;2.15;;
33824;SDS011;20127;48.962;8.342;2022-07-29T00:39:46;5.97;;;2.08;;
33824;SDS011;20127;48.962;8.342;2022-07-29T00:42:49;8.45;;;2.05;;
33824;SDS011;20127;48.962;8.342;2022-07-29T00:45:52;4.72;;;1.83;;
33824;SDS011;20127;48.962;8.342;2022-07-29T00:48:54;3.88;;;2.03;;
33824;SDS011;20127;48.962;8.342;2022-07-29T00:51:55;2.95;;;2.00;;
33824;SDS011;20127;48.962;8.342;2022-07-29T00:54:57;16.98;;;2.75;;
33824;SDS011;20127;48.962;8.342;2022-07-29T00:58:01;8.63;;;2.45;;
33824;SDS011;20127;48.962;8.342;2022-07-29T01:01:03;5.72;;;2.88;;
33824;SDS011;20127;48.962;8.342;2022-07-29T01:04:05;3.10;;;2.28;;
33824;SDS011;20127;48.962;8.342;2022-07-29T01:07:07;4.18;;;1.90;;
33824;SDS011;20127;48.962;8.342;2022-07-29T01:10:09;6.85;;;2.00;;
33824;SDS011;20127;48.962;8.342;2022-07-29T01:13:15;3.75;;;1.83;;
33824;SDS011;20127;48.962;8.342;2022-07-29T01:16:20;2.78;;;2.17;;
33824;SDS011;20127;48.962;8.342;2022-07-29T01:19:41;4.35;;;2.20;;
33824;SDS011;20127;48.962;8.342;2022-07-29T01:23:08;5.47;;;2.65;;
33824;SDS011;20127;48.962;8.342;2022-07-29T01:26:34;3.65;;;2.75;;
33824;SDS011;20127;48.962;8.342;2022-07-29T01:29:48;2.75;;;2.30;;
33824;SDS011;20127;48.962;8.342;2022-07-29T01:32:55;3.70;;;2.22;;
33824;SDS011;20127;48.962;8.342;2022-07-29T01:36:04;4.10;;;2.53;;
33824;SDS011;20127;48.962;8.342;2022-07-29T01:39:13;5.55;;;2.40;;
33824;SDS011;20127;48.962;8.342;2022-07-29T01:42:20;2.13;;;1.83;;
33824;SDS011;20127;48.962;8.342;2022-07-29T01:45:30;4.50;;;2.97;;
33824;SDS011;20127;48.962;8.342;2022-07-29T01:48:39;4.90;;;2.53;;
33824;SDS011;20127;48.962;8.342;2022-07-29T01:51:43;4.13;;;2.75;;
33824;SDS011;20127;48.962;8.342;2022-07-29T01:54:52;3.20;;;2.37;;
33824;SDS011;20127;48.962;8.342;2022-07-29T01:57:56;3.42;;;2.60;;
33824;SDS011;20127;48.962;8.342;2022-07-29T02:01:00;4.05;;;2.72;;
33824;SDS011;20127;48.962;8.342;2022-07-29T02:04:04;3.90;;;2.20;;
33824;SDS011;20127;48.962;8.342;2022-07-29T02:07:10;2.80;;;2.20;;
33824;SDS011;20127;48.962;8.342;2022-07-29T02:10:16;3.38;;;2.60;;
33824;SDS011;20127;48.962;8.342;2022-07-29T02:13:19;6.18;;;3.00;;
33824;SDS011;20127;48.962;8.342;2022-07-29T02:16:25;4.03;;;2.42;;
33824;SDS011;20127;48.962;8.342;2022-07-29T02:19:30;8.27;;;2.75;;
33824;SDS011;20127;48.962;8.342;2022-07-29T02:22:35;6.93;;;2.38;;
33824;SDS011;20127;48.962;8.342;2022-07-29T02:25:40;2.95;;;2.38;;
33824;SDS011;20127;48.962;8.342;2022-07-29T02:28:43;6.25;;;2.70;;
33824;SDS011;20127;48.962;8.342;2022-07-29T02:31:48;3.67;;;2.10;;
33824;SDS011;20127;48.962;8.342;2022-07-29T02:34:51;8.30;;;3.35;;
33824;SDS011;20127;48.962;8.342;2022-07-29T02:37:54;3.95;;;2.90;;
33824;SDS011;20127;48.962;8.342;2022-07-29T02:41:15;5.40;;;2.97;;
33824;SDS011;20127;48.962;8.342;2022-07-29T02:44:20;3.33;;;2.28;;
33824;SDS011;20127;48.962;8.342;2022-07-29T02:47:27;5.18;;;3.05;;
33824;SDS011;20127;48.962;8.342;2022-07-29T02:50:35;4.13;;;2.63;;
33824;SDS011;20127;48.962;8.342;2022-07-29T02:53:40;6.13;;;2.78;;
33824;SDS011;20127;48.962;8.342;2022-07-29T02:56:45;3.97;;;2.83;;
33824;SDS011;20127;48.962;8.342;2022-07-29T02:59:50;4.80;;;3.17;;
33824;SDS011;20127;48.962;8.342;2022-07-29T03:02:56;4.03;;;2.92;;
33824;SDS011;20127;48.962;8.342;2022-07-29T03:06:01;5.70;;;2.72;;
33824;SDS011;20127;48.962;8.342;2022-07-29T03:09:04;4.47;;;3.03;;
33824;SDS011;20127;48.962;8.342;2022-07-29T03:12:07;4.75;;;2.63;;
33824;SDS011;20127;48.962;8.342;2022-07-29T03:15:10;5.72;;;2.92;;
33824;SDS011;20127;48.962;8.342;2022-07-29T03:18:14;5.30;;;3.00;;
33824;SDS011;20127;48.962;8.342;2022-07-29T03:21:16;6.40;;;3.67;;
33824;SDS011;20127;48.962;8.342;2022-07-29T03:24:25;5.10;;;2.70;;
33824;SDS011;20127;48.962;8.342;2022-07-29T03:27:31;6.20;;;2.85;;
33824;SDS011;20127;48.962;8.342;2022-07-29T03:30:33;3.28;;;2.55;;
33824;SDS011;20127;48.962;8.342;2022-07-29T03:33:36;5.60;;;3.08;;
33824;SDS011;20127;48.962;8.342;2022-07-29T03:36:37;5.38;;;3.38;;
33824;SDS011;20127;48.962;8.342;2022-07-29T03:39:40;6.65;;;3.67;;
33824;SDS011;20127;48.962;8.342;2022-07-29T03:42:43;7.22;;;2.80;;
33824;SDS011;20127;48.962;8.342;2022-07-29T03:45:47;9.23;;;3.55;;
33824;SDS011;20127;48.962;8.342;2022-07-29T03:48:55;5.57;;;3.60;;
33824;SDS011;20127;48.962;8.342;2022-07-29T03:51:59;4.47;;;3.00;;
33824;SDS011;20127;48.962;8.342;2022-07-29T03:55:01;6.00;;;3.40;;
33824;SDS011;20127;48.962;8.342;2022-07-29T03:58:04;5.60;;;3.60;;
33824;SDS011;20127;48.962;8.342;2022-07-29T04:01:07;4.78;;;2.92;;
33824;SDS011;20127;48.962;8.342;2022-07-29T04:04:11;3.95;;;2.88;;
33824;SDS011;20127;48.962;8.342;2022-07-29T04:07:14;6.32;;;2.58;;
33824;SDS011;20127;48.962;8.342;2022-07-29T04:10:16;7.00;;;3.53;;
33824;SDS011;20127;48.962;8.342;2022-07-29T04:13:18;11.57;;;3.13;;
33824;SDS011;20127;48.962;8.342;2022-07-29T04:16:20;7.55;;;4.00;;
33824;SDS011;20127;48.962;8.342;2022-07-29T04:19:23;5.10;;;3.08;;
33824;SDS011;20127;48.962;8.342;2022-07-29T04:22:25;7.22;;;3.08;;
33824;SDS011;20127;48.962;8.342;2022-07-29T04:25:27;4.15;;;3.03;;
33824;SDS011;20127;48.962;8.342;2022-07-29T04:28:28;3.92;;;3.08;;
33824;SDS011;20127;48.962;8.342;2022-07-29T04:31:30;5.50;;;3.55;;
33824;SDS011;20127;48.962;8.342;2022-07-29T04:34:33;3.47;;;3.17;;
33824;SDS011;20127;48.962;8.342;2022-07-29T04:37:35;6.18;;;3.28;;
33824;SDS011;20127;48.962;8.342;2022-07-29T04:40:37;5.60;;;3.20;;
33824;SDS011;20127;48.962;8.342;2022-07-29T04:43:39;7.03;;;4.20;;
33824;SDS011;20127;48.962;8.342;2022-07-29T04:46:40;7.05;;;3.08;;
33824;SDS011;20127;48.962;8.342;2022-07-29T04:49:44;8.82;;;3.40;;
33824;SDS011;20127;48.962;8.342;2022-07-29T04:52:45;8.57;;;3.08;;
33824;SDS011;20127;48.962;8.342;2022-07-29T04:55:47;6.43;;;3.00;;
33824;SDS011;20127;48.962;8.342;2022-07-29T04:58:49;3.83;;;3.13;;
33824;SDS011;20127;48.962;8.342;2022-07-29T05:01:50;5.20;;;3.08;;
33824;SDS011;20127;48.962;8.342;2022-07-29T05:04:53;4.63;;;2.97;;
33824;SDS011;20127;48.962;8.342;2022-07-29T05:07:55;5.10;;;3.50;;
33824;SDS011;20127;48.962;8.342;2022-07-29T05:10:57;9.18;;;3.63;;
33824;SDS011;20127;48.962;8.342;2022-07-29T05:13:59;7.93;;;3.05;;
33824;SDS011;20127;48.962;8.342;2022-07-29T05:17:00;5.78;;;3.08;;
33824;SDS011;20127;48.962;8.342;2022-07-29T05:20:04;5.68;;;3.22;;
33824;SDS011;20127;48.962;8.342;2022-07-29T05:23:07;7.93;;;2.58;;
33824;SDS011;20127;48.962;8.342;2022-07-29T05:26:09;6.15;;;2.92;;
33824;SDS011;20127;48.962;8.342;2022-07-29T05:29:10;6.72;;;3.05;;
33824;SDS011;20127;48.962;8.342;2022-07-29T05:32:12;4.40;;;2.30;;
33824;SDS011;20127;48.962;8.342;2022-07-29T05:35:16;4.85;;;2.42;;
33824;SDS011;20127;48.962;8.342;2022-07-29T05:38:17;6.72;;;2.50;;
33824;SDS011;20127;48.962;8.342;2022-07-29T05:41:19;3.75;;;2.75;;
33824;SDS011;20127;48.962;8.342;2022-07-29T05:44:21;4.65;;;2.53;;
33824;SDS011;20127;48.962;8.342;2022-07-29T05:47:23;5.07;;;2.60;;
33824;SDS011;20127;48.962;8.342;2022-07-29T05:50:26;3.70;;;2.75;;
33824;SDS011;20127;48.962;8.342;2022-07-29T05:53:28;6.50;;;2.70;;
33824;SDS011;20127;48.962;8.342;2022-07-29T05:56:29;5.80;;;2.45;;
33824;SDS011;20127;48.962;8.342;2022-07-29T05:59:31;5.40;;;3.00;;
33824;SDS011;20127;48.962;8.342;2022-07-29T06:02:36;8.32;;;3.20;;
33824;SDS011;20127;48.962;8.342;2022-07-29T06:05:39;4.18;;;2.60;;
33824;SDS011;20127;48.962;8.342;2022-07-29T06:08:41;5.65;;;2.30;;
33824;SDS011;20127;48.962;8.342;2022-07-29T06:11:43;2.72;;;2.28;;
33824;SDS011;20127;48.962;8.342;2022-07-29T06:14:45;5.60;;;2.22;;
33824;SDS011;20127;48.962;8.342;2022-07-29T06:17:46;8.00;;;1.83;;
33824;SDS011;20127;48.962;8.342;2022-07-29T06:20:50;7.78;;;2.50;;
33824;SDS011;20127;48.962;8.342;2022-07-29T06:23:52;4.90;;;2.10;;
33824;SDS011;20127;48.962;8.342;2022-07-29T06:26:54;5.65;;;2.25;;
33824;SDS011;20127;48.962;8.342;2022-07-29T06:29:56;4.80;;;2.33;;
33824;SDS011;20127;48.962;8.342;2022-07-29T06:32:57;5.07;;;2.10;;
33824;SDS011;20127;48.962;8.342;2022-07-29T06:36:01;3.80;;;2.42;;
33824;SDS011;20127;48.962;8.342;2022-07-29T06:39:05;8.13;;;2.58;;
33824;SDS011;20127;48.962;8.342;2022-07-29T06:42:07;6.97;;;2.10;;
33824;SDS011;20127;48.962;8.342;2022-07-29T06:45:09;5.43;;;1.92;;
33824;SDS011;20127;48.962;8.342;2022-07-29T06:48:11;4.90;;;2.00;;
33824;SDS011;20127;48.962;8.342;2022-07-29T06:51:14;4.95;;;2.05;;
33824;SDS011;20127;48.962;8.342;2022-07-29T06:54:17;8.18;;;1.95;;
33824;SDS011;20127;48.962;8.342;2022-07-29T06:57:19;2.47;;;1.45;;
33824;SDS011;20127;48.962;8.342;2022-07-29T07:00:20;9.45;;;3.50;;
33824;SDS011;20127;48.962;8.342;2022-07-29T07:03:22;6.72;;;1.73;;
33824;SDS011;20127;48.962;8.342;2022-07-29T07:06:26;2.72;;;1.20;;
33824;SDS011;20127;48.962;8.342;2022-07-29T07:09:28;7.38;;;2.97;;
33824;SDS011;20127;48.962;8.342;2022-07-29T07:12:29;3.78;;;1.55;;
33824;SDS011;20127;48.962;8.342;2022-07-29T07:15:31;3.60;;;1.90;;
33824;SDS011;20127;48.962;8.342;2022-07-29T07:18:33;1.95;;;1.58;;
33824;SDS011;20127;48.962;8.342;2022-07-29T07:21:36;4.13;;;1.98;;
33824;SDS011;20127;48.962;8.342;2022-07-29T07:24:37;6.32;;;2.00;;
33824;SDS011;20127;48.962;8.342;2022-07-29T07:27:39;6.53;;;1.55;;
33824;SDS011;20127;48.962;8.342;2022-07-29T07:30:41;4.55;;;1.50;;
33824;SDS011;20127;48.962;8.342;2022-07-29T07:33:43;9.20;;;1.70;;
33824;SDS011;20127;48.962;8.342;2022-07-29T07:36:46;2.60;;;1.30;;
33824;SDS011;20127;48.962;8.342;2022-07-29T07:39:48;7.00;;;1.40;;
33824;SDS011;20127;48.962;8.342;2022-07-29T07:42:49;4.00;;;1.23;;
33824;SDS011;20127;48.962;8.342;2022-07-29T07:45:51;5.00;;;1.48;;
33824;SDS011;20127;48.962;8.342;2022-07-29T07:48:53;2.10;;;1.40;;
33824;SDS011;20127;48.962;8.342;2022-07-29T07:51:56;3.42;;;1.52;;
33824;SDS011;20127;48.962;8.342;2022-07-29T07:54:58;4.15;;;1.52;;
33824;SDS011;20127;48.962;8.342;2022-07-29T07:58:00;6.28;;;1.45;;
33824;SDS011;20127;48.962;8.342;2022-07-29T08:01:01;4.10;;;1.45;;
33824;SDS011;20127;48.962;8.342;2022-07-29T08:04:03;6.68;;;1.58;;
33824;SDS011;20127;48.962;8.342;2022-07-29T08:07:07;4.82;;;1.20;;
33824;SDS011;20127;48.962;8.342;2022-07-29T08:10:09;2.60;;;1.30;;
33824;SDS011;20127;48.962;8.342;2022-07-29T08:13:11;6.18;;;1.52;;
33824;SDS011;20127;48.962;8.342;2022-07-29T08:16:13;1.80;;;1.00;;
33824;SDS011;20127;48.962;8.342;2022-07-29T08:19:15;3.47;;;1.10;;
33824;SDS011;20127;48.962;8.342;2022-07-29T08:22:18;2.10;;;1.13;;
33824;SDS011;20127;48.962;8.342;2022-07-29T08:25:20;7.00;;;1.70;;
33824;SDS011;20127;48.962;8.342;2022-07-29T08:28:22;3.60;;;1.10;;
33824;SDS011;20127;48.962;8.342;2022-07-29T08:31:24;5.05;;;1.15;;
33824;SDS011;20127;48.962;8.342;2022-07-29T08:34:26;2.15;;;1.00;;
33824;SDS011;20127;48.962;8.342;2022-07-29T08:37:29;2.75;;;1.30;;
33824;SDS011;20127;48.962;8.342;2022-07-29T08:40:31;3.17;;;1.13;;
33824;SDS011;20127;48.962;8.342;2022-07-29T08:43:33;7.55;;;1.60;;
33824;SDS011;20127;48.962;8.342;2022-07-29T08:46:37;5.95;;;1.10;;
33824;SDS011;20127;48.962;8.342;2022-07-29T08:49:39;5.97;;;1.55;;
33824;SDS011;20127;48.962;8.342;2022-07-29T08:52:42;6.18;;;1.38;;
33824;SDS011;20127;48.962;8.342;2022-07-29T08:55:45;5.15;;;1.50;;
33824;SDS011;20127;48.962;8.342;2022-07-29T08:58:48;3.47;;;1.65;;
33824;SDS011;20127;48.962;8.342;2022-07-29T09:01:50;3.08;;;1.58;;
33824;SDS011;20127;48.962;8.342;2022-07-29T09:04:54;5.45;;;1.20;;
33824;SDS011;20127;48.962;8.342;2022-07-29T09:07:58;8.93;;;1.17;;
33824;SDS011;20127;48.962;8.342;2022-07-29T09:11:01;4.55;;;1.20;;
33824;SDS011;20127;48.962;8.342;2022-07-29T09:14:04;3.65;;;1.00;;
33824;SDS011;20127;48.962;8.342;2022-07-29T09:17:06;1.92;;;1.23;;
33824;SDS011;20127;48.962;8.342;2022-07-29T09:20:09;3.85;;;1.27;;
33824;SDS011;20127;48.962;8.342;2022-07-29T09:23:13;4.47;;;1.45;;
33824;SDS011;20127;48.962;8.342;2022-07-29T09:26:15;5.32;;;1.15;;
33824;SDS011;20127;48.962;8.342;2022-07-29T09:29:17;4.03;;;1.08;;
33824;SDS011;20127;48.962;8.342;2022-07-29T09:32:20;5.00;;;1.42;;
33824;SDS011;20127;48.962;8.342;2022-07-29T09:35:23;3.72;;;1.20;;
33824;SDS011;20127;48.962;8.342;2022-07-29T09:38:27;12.50;;;1.70;;
33824;SDS011;20127;48.962;8.342;2022-07-29T09:41:29;3.13;;;1.20;;
33824;SDS011;20127;48.962;8.342;2022-07-29T09:44:45;5.75;;;1.95;;
33824;SDS011;20127;48.962;8.342;2022-07-29T09:47:48;10.10;;;1.30;;
33824;SDS011;20127;48.962;8.342;2022-07-29T09:50:50;3.17;;;1.15;;
33824;SDS011;20127;48.962;8.342;2022-07-29T09:53:55;6.00;;;1.20;;
33824;SDS011;20127;48.962;8.342;2022-07-29T09:56:56;4.43;;;1.10;;
33824;SDS011;20127;48.962;8.342;2022-07-29T09:59:59;2.83;;;1.15;;
33824;SDS011;20127;48.962;8.342;2022-07-29T10:03:05;5.20;;;1.25;;
33824;SDS011;20127;48.962;8.342;2022-07-29T10:06:07;6.47;;;1.70;;
33824;SDS011;20127;48.962;8.342;2022-07-29T10:09:12;6.78;;;1.20;;
33824;SDS011;20127;48.962;8.342;2022-07-29T10:12:13;4.20;;;0.90;;
33824;SDS011;20127;48.962;8.342;2022-07-29T10:15:15;3.85;;;1.10;;
33824;SDS011;20127;48.962;8.342;2022-07-29T10:18:17;2.05;;;0.90;;
33824;SDS011;20127;48.962;8.342;2022-07-29T10:21:19;3.85;;;1.02;;
33824;SDS011;20127;48.962;8.342;2022-07-29T10:24:23;11.93;;;1.58;;
33824;SDS011;20127;48.962;8.342;2022-07-29T10:27:26;4.28;;;0.90;;
33824;SDS011;20127;48.962;8.342;2022-07-29T10:30:28;4.93;;;1.10;;
33824;SDS011;20127;48.962;8.342;2022-07-29T10:33:37;2.38;;;0.60;;
33824;SDS011;20127;48.962;8.342;2022-07-29T10:36:48;2.40;;;0.95;;
33824;SDS011;20127;48.962;8.342;2022-07-29T10:40:00;3.40;;;1.15;;
33824;SDS011;20127;48.962;8.342;2022-07-29T10:43:26;6.20;;;1.02;;
33824;SDS011;20127;48.962;8.342;2022-07-29T10:46:34;2.00;;;0.77;;
33824;SDS011;20127;48.962;8.342;2022-07-29T10:49:36;9.48;;;1.02;;
33824;SDS011;20127;48.962;8.342;2022-07-29T10:52:54;4.00;;;0.93;;
33824;SDS011;20127;48.962;8.342;2022-07-29T10:55:58;2.92;;;1.00;;
33824;SDS011;20127;48.962;8.342;2022-07-29T11:02:43;2.65;;;1.33;;
33824;SDS011;20127;48.962;8.342;2022-07-29T11:05:51;6.53;;;0.80;;
33824;SDS011;20127;48.962;8.342;2022-07-29T11:15:54;2.83;;;0.55;;
33824;SDS011;20127;48.962;8.342;2022-07-29T11:22:31;3.97;;;1.02;;
33824;SDS011;20127;48.962;8.342;2022-07-29T11:25:34;5.90;;;1.52;;
33824;SDS011;20127;48.962;8.342;2022-07-29T11:28:38;3.58;;;0.50;;
33824;SDS011;20127;48.962;8.342;2022-07-29T11:31:52;1.88;;;0.43;;
33824;SDS011;20127;48.962;8.342;2022-07-29T11:35:12;1.15;;;0.45;;
33824;SDS011;20127;48.962;8.342;2022-07-29T11:38:24;3.70;;;0.80;;
33824;SDS011;20127;48.962;8.342;2022-07-29T11:41:26;3.13;;;0.98;;
33824;SDS011;20127;48.962;8.342;2022-07-29T11:48:06;11.18;;;1.25;;
33824;SDS011;20127;48.962;8.342;2022-07-29T11:51:15;2.95;;;0.60;;
33824;SDS011;20127;48.962;8.342;2022-07-29T11:54:21;3.88;;;0.77;;
33824;SDS011;20127;48.962;8.342;2022-07-29T11:57:26;2.97;;;0.70;;
33824;SDS011;20127;48.962;8.342;2022-07-29T12:00:30;2.00;;;0.40;;
33824;SDS011;20127;48.962;8.342;2022-07-29T12:03:34;1.58;;;0.63;;
33824;SDS011;20127;48.962;8.342;2022-07-29T12:06:37;2.00;;;0.63;;
33824;SDS011;20127;48.962;8.342;2022-07-29T12:09:38;1.20;;;0.50;;
33824;SDS011;20127;48.962;8.342;2022-07-29T12:12:40;2.10;;;0.80;;
33824;SDS011;20127;48.962;8.342;2022-07-29T12:15:42;4.07;;;0.88;;
33824;SDS011;20127;48.962;8.342;2022-07-29T12:18:58;1.52;;;0.47;;
33824;SDS011;20127;48.962;8.342;2022-07-29T12:25:03;4.00;;;0.75;;
33824;SDS011;20127;48.962;8.342;2022-07-29T12:28:07;2.97;;;0.60;;
33824;SDS011;20127;48.962;8.342;2022-07-29T12:31:12;2.67;;;0.70;;
33824;SDS011;20127;48.962;8.342;2022-07-29T12:34:16;3.28;;;0.70;;
33824;SDS011;20127;48.962;8.342;2022-07-29T12:37:18;2.35;;;0.77;;
33824;SDS011;20127;48.962;8.342;2022-07-29T12:40:20;4.60;;;1.05;;
33824;SDS011;20127;48.962;8.342;2022-07-29T12:43:23;3.05;;;1.08;;
33824;SDS011;20127;48.962;8.342;2022-07-29T12:46:25;3.55;;;0.63;;
33824;SDS011;20127;48.962;8.342;2022-07-29T12:49:29;5.18;;;0.85;;
33824;SDS011;20127;48.962;8.342;2022-07-29T12:52:31;2.47;;;0.32;;
33824;SDS011;20127;48.962;8.342;2022-07-29T12:55:41;2.00;;;0.75;;
33824;SDS011;20127;48.962;8.342;2022-07-29T12:58:44;2.00;;;0.50;;
33824;SDS011;20127;48.962;8.342;2022-07-29T13:01:46;1.75;;;0.52;;
33824;SDS011;20127;48.962;8.342;2022-07-29T13:04:56;3.90;;;0.88;;
33824;SDS011;20127;48.962;8.342;2022-07-29T13:08:09;6.80;;;1.13;;
33824;SDS011;20127;48.962;8.342;2022-07-29T13:11:26;5.30;;;0.90;;
33824;SDS011;20127;48.962;8.342;2022-07-29T13:14:30;3.97;;;0.70;;
33824;SDS011;20127;48.962;8.342;2022-07-29T13:17:33;6.10;;;0.90;;
33824;SDS011;20127;48.962;8.342;2022-07-29T13:20:43;6.88;;;0.68;;
33824;SDS011;20127;48.962;8.342;2022-07-29T13:23:45;3.45;;;0.82;;
33824;SDS011;20127;48.962;8.342;2022-07-29T13:26:47;2.17;;;0.55;;
33824;SDS011;20127;48.962;8.342;2022-07-29T13:29:49;0.93;;;0.47;;
33824;SDS011;20127;48.962;8.342;2022-07-29T13:32:52;4.30;;;0.60;;
33824;SDS011;20127;48.962;8.342;2022-07-29T13:35:56;5.13;;;0.60;;
33824;SDS011;20127;48.962;8.342;2022-07-29T13:38:58;4.60;;;0.65;;
33824;SDS011;20127;48.962;8.342;2022-07-29T13:42:01;3.47;;;0.73;;
33824;SDS011;20127;48.962;8.342;2022-07-29T13:45:03;4.80;;;0.73;;
33824;SDS011;20127;48.962;8.342;2022-07-29T13:48:06;8.68;;;1.23;;
33824;SDS011;20127;48.962;8.342;2022-07-29T13:51:09;4.20;;;0.68;;
33824;SDS011;20127;48.962;8.342;2022-07-29T13:54:11;1.60;;;0.60;;
33824;SDS011;20127;48.962;8.342;2022-07-29T13:57:13;4.68;;;0.70;;
33824;SDS011;20127;48.962;8.342;2022-07-29T14:00:15;2.55;;;0.80;;
33824;SDS011;20127;48.962;8.342;2022-07-29T14:03:18;4.40;;;0.85;;
33824;SDS011;20127;48.962;8.342;2022-07-29T14:06:21;6.43;;;1.10;;
33824;SDS011;20127;48.962;8.342;2022-07-29T14:09:23;2.60;;;0.45;;
33824;SDS011;20127;48.962;8.342;2022-07-29T14:12:25;2.83;;;0.63;;
33824;SDS011;20127;48.962;8.342;2022-07-29T14:15:26;10.07;;;1.13;;
33824;SDS011;20127;48.962;8.342;2022-07-29T14:18:28;6.60;;;0.80;;
33824;SDS011;20127;48.962;8.342;2022-07-29T14:21:31;4.25;;;0.70;;
33824;SDS011;20127;48.962;8.342;2022-07-29T14:24:34;7.32;;;1.13;;
33824;SDS011;20127;48.962;8.342;2022-07-29T14:27:36;4.13;;;0.40;;
33824;SDS011;20127;48.962;8.342;2022-07-29T14:30:38;1.85;;;0.88;;
33824;SDS011;20127;48.962;8.342;2022-07-29T14:33:40;1.30;;;0.45;;
33824;SDS011;20127;48.962;8.342;2022-07-29T14:36:43;3.70;;;0.57;;
33824;SDS011;20127;48.962;8.342;2022-07-29T14:39:45;4.25;;;0.63;;
33824;SDS011;20127;48.962;8.342;2022-07-29T14:42:47;3.60;;;0.50;;
33824;SDS011;20127;48.962;8.342;2022-07-29T14:45:49;3.28;;;0.52;;
33824;SDS011;20127;48.962;8.342;2022-07-29T14:48:51;4.55;;;0.90;;
33824;SDS011;20127;48.962;8.342;2022-07-29T14:51:54;6.85;;;1.23;;
33824;SDS011;20127;48.962;8.342;2022-07-29T14:54:56;1.65;;;0.63;;
33824;SDS011;20127;48.962;8.342;2022-07-29T14:57:57;6.20;;;0.80;;
33824;SDS011;20127;48.962;8.342;2022-07-29T15:00:59;7.05;;;0.80;;
33824;SDS011;20127;48.962;8.342;2022-07-29T15:04:01;1.52;;;0.40;;
33824;SDS011;20127;48.962;8.342;2022-07-29T15:07:05;0.95;;;0.40;;
33824;SDS011;20127;48.962;8.342;2022-07-29T15:10:06;3.22;;;0.30;;
33824;SDS011;20127;48.962;8.342;2022-07-29T15:13:08;1.63;;;0.55;;
33824;SDS011;20127;48.962;8.342;2022-07-29T15:16:10;1.23;;;0.40;;
33824;SDS011;20127;48.962;8.342;2022-07-29T15:19:12;2.55;;;0.40;;
33824;SDS011;20127;48.962;8.342;2022-07-29T15:22:15;5.25;;;0.70;;
33824;SDS011;20127;48.962;8.342;2022-07-29T15:25:17;0.82;;;0.40;;
33824;SDS011;20127;48.962;8.342;2022-07-29T15:28:19;3.05;;;0.50;;
33824;SDS011;20127;48.962;8.342;2022-07-29T15:31:20;1.58;;;0.60;;
33824;SDS011;20127;48.962;8.342;2022-07-29T15:34:22;2.03;;;0.75;;
33824;SDS011;20127;48.962;8.342;2022-07-29T15:37:25;1.35;;;0.52;;
33824;SDS011;20127;48.962;8.342;2022-07-29T15:40:28;7.80;;;0.57;;
33824;SDS011;20127;48.962;8.342;2022-07-29T15:43:30;5.30;;;0.65;;
33824;SDS011;20127;48.962;8.342;2022-07-29T15:46:31;3.58;;;0.57;;
33824;SDS011;20127;48.962;8.342;2022-07-29T15:49:51;3.58;;;0.73;;
33824;SDS011;20127;48.962;8.342;2022-07-29T15:52:54;4.80;;;0.52;;
33824;SDS011;20127;48.962;8.342;2022-07-29T15:55:55;1.95;;;0.68;;
33824;SDS011;20127;48.962;8.342;2022-07-29T15:58:57;7.35;;;0.52;;
33824;SDS011;20127;48.962;8.342;2022-07-29T16:01:59;5.20;;;0.63;;
33824;SDS011;20127;48.962;8.342;2022-07-29T16:05:01;1.17;;;0.50;;
33824;SDS011;20127;48.962;8.342;2022-07-29T16:08:05;3.17;;;0.85;;
33824;SDS011;20127;48.962;8.342;2022-07-29T16:11:06;1.95;;;0.60;;
33824;SDS011;20127;48.962;8.342;2022-07-29T16:14:08;2.42;;;0.47;;
33824;SDS011;20127;48.962;8.342;2022-07-29T16:17:10;2.30;;;0.55;;
33824;SDS011;20127;48.962;8.342;2022-07-29T16:20:12;5.78;;;1.20;;
33824;SDS011;20127;48.962;8.342;2022-07-29T16:23:15;3.90;;;0.73;;
33824;SDS011;20127;48.962;8.342;2022-07-29T16:26:17;2.15;;;0.60;;
33824;SDS011;20127;48.962;8.342;2022-07-29T16:29:19;3.15;;;0.88;;
33824;SDS011;20127;48.962;8.342;2022-07-29T16:32:21;2.55;;;0.57;;
33824;SDS011;20127;48.962;8.342;2022-07-29T16:35:23;2.28;;;0.60;;
33824;SDS011;20127;48.962;8.342;2022-07-29T16:38:26;6.90;;;0.80;;
33824;SDS011;20127;48.962;8.342;2022-07-29T16:41:28;2.78;;;0.50;;
33824;SDS011;20127;48.962;8.342;2022-07-29T16:44:30;3.05;;;0.70;;
33824;SDS011;20127;48.962;8.342;2022-07-29T16:47:31;2.80;;;1.58;;
33824;SDS011;20127;48.962;8.342;2022-07-29T16:50:33;2.72;;;0.85;;
33824;SDS011;20127;48.962;8.342;2022-07-29T16:53:36;3.42;;;0.95;;
33824;SDS011;20127;48.962;8.342;2022-07-29T16:56:38;1.67;;;0.65;;
33824;SDS011;20127;48.962;8.342;2022-07-29T16:59:40;1.15;;;0.60;;
33824;SDS011;20127;48.962;8.342;2022-07-29T17:02:41;5.63;;;0.75;;
33824;SDS011;20127;48.962;8.342;2022-07-29T17:05:43;4.78;;;1.35;;
33824;SDS011;20127;48.962;8.342;2022-07-29T17:08:46;7.47;;;1.15;;
33824;SDS011;20127;48.962;8.342;2022-07-29T17:11:48;4.50;;;0.50;;
33824;SDS011;20127;48.962;8.342;2022-07-29T17:14:52;1.92;;;0.98;;
33824;SDS011;20127;48.962;8.342;2022-07-29T17:17:54;1.85;;;1.00;;
33824;SDS011;20127;48.962;8.342;2022-07-29T17:20:56;4.63;;;1.52;;
33824;SDS011;20127;48.962;8.342;2022-07-29T17:23:59;1.55;;;0.65;;
33824;SDS011;20127;48.962;8.342;2022-07-29T17:27:00;2.58;;;0.50;;
33824;SDS011;20127;48.962;8.342;2022-07-29T17:30:02;2.10;;;0.50;;
33824;SDS011;20127;48.962;8.342;2022-07-29T17:33:05;3.53;;;0.70;;
33824;SDS011;20127;48.962;8.342;2022-07-29T17:36:07;3.90;;;0.88;;
33824;SDS011;20127;48.962;8.342;2022-07-29T17:39:25;5.38;;;0.75;;
33824;SDS011;20127;48.962;8.342;2022-07-29T17:42:27;3.47;;;1.05;;
33824;SDS011;20127;48.962;8.342;2022-07-29T17:45:28;1.50;;;0.68;;
33824;SDS011;20127;48.962;8.342;2022-07-29T17:48:30;3.17;;;0.75;;
33824;SDS011;20127;48.962;8.342;2022-07-29T17:51:32;3.15;;;0.80;;
33824;SDS011;20127;48.962;8.342;2022-07-29T17:54:35;3.85;;;0.95;;
33824;SDS011;20127;48.962;8.342;2022-07-29T17:57:36;3.40;;;0.90;;
33824;SDS011;20127;48.962;8.342;2022-07-29T18:00:39;3.70;;;0.70;;
33824;SDS011;20127;48.962;8.342;2022-07-29T18:03:41;4.63;;;1.00;;
33824;SDS011;20127;48.962;8.342;2022-07-29T18:06:43;4.60;;;1.10;;
33824;SDS011;20127;48.962;8.342;2022-07-29T18:09:46;2.03;;;0.60;;
33824;SDS011;20127;48.962;8.342;2022-07-29T18:12:47;3.97;;;0.90;;
33824;SDS011;20127;48.962;8.342;2022-07-29T18:15:49;3.33;;;0.88;;
33824;SDS011;20127;48.962;8.342;2022-07-29T18:18:51;1.88;;;0.80;;
33824;SDS011;20127;48.962;8.342;2022-07-29T18:21:54;2.08;;;0.60;;
33824;SDS011;20127;48.962;8.342;2022-07-29T18:24:57;7.22;;;1.00;;
33824;SDS011;20127;48.962;8.342;2022-07-29T18:27:59;4.38;;;0.88;;
33824;SDS011;20127;48.962;8.342;2022-07-29T18:31:01;3.22;;;0.80;;
33824;SDS011;20127;48.962;8.342;2022-07-29T18:34:04;2.40;;;0.98;;
33824;SDS011;20127;48.962;8.342;2022-07-29T18:37:05;4.55;;;0.85;;
33824;SDS011;20127;48.962;8.342;2022-07-29T18:40:09;5.13;;;0.70;;
33824;SDS011;20127;48.962;8.342;2022-07-29T18:43:11;3.30;;;1.00;;
33824;SDS011;20127;48.962;8.342;2022-07-29T18:46:13;2.58;;;0.75;;